createdAt,value
2023-02-21T00:00:36.900Z,2.42
2023-02-21T00:03:22.490Z,2.85
2023-02-21T00:06:07.967Z,3.28
2023-02-21T00:08:53.221Z,2.55
2023-02-21T00:11:38.724Z,2.58
2023-02-21T00:14:24.300Z,1.80
2023-02-21T00:17:09.766Z,2.10
2023-02-21T00:19:55.290Z,1.65
2023-02-21T00:22:40.826Z,2.17
2023-02-21T00:25:26.444Z,2.33
2023-02-21T00:28:11.917Z,2.40
2023-02-21T00:30:57.548Z,2.50
2023-02-21T00:33:42.948Z,3.45
2023-02-21T00:36:28.351Z,1.85
2023-02-21T00:39:13.711Z,2.10
2023-02-21T00:41:59.049Z,2.33
2023-02-21T00:44:44.379Z,3.10
2023-02-21T00:47:29.621Z,2.35
2023-02-21T00:50:14.849Z,2.58
2023-02-21T00:52:59.975Z,2.88
2023-02-21T00:55:45.510Z,2.88
2023-02-21T00:58:30.979Z,2.38
2023-02-21T01:01:17.312Z,2.38
2023-02-21T01:04:02.732Z,1.85
2023-02-21T01:06:47.914Z,1.75
2023-02-21T01:09:34.439Z,2.97
2023-02-21T01:12:19.733Z,1.90
2023-02-21T01:15:05.477Z,2.60
2023-02-21T01:17:50.651Z,2.23
2023-02-21T01:20:36.275Z,2.15
2023-02-21T01:23:23.646Z,2.17
2023-02-21T01:26:09.176Z,1.87
2023-02-21T01:28:55.591Z,2.22
2023-02-21T01:31:41.265Z,2.78
2023-02-21T01:34:26.773Z,2.67
2023-02-21T01:37:12.220Z,2.95
2023-02-21T01:39:57.608Z,2.35
2023-02-21T01:42:42.886Z,2.10
2023-02-21T01:45:40.532Z,3.03
2023-02-21T01:48:29.329Z,2.72
2023-02-21T01:51:17.112Z,1.98
2023-02-21T01:54:03.484Z,2.25
2023-02-21T01:56:49.724Z,1.70
2023-02-21T01:59:36.913Z,2.00
2023-02-21T02:02:41.273Z,2.28
2023-02-21T02:05:29.064Z,2.05
2023-02-21T02:08:14.676Z,2.90
2023-02-21T02:11:01.612Z,2.00
2023-02-21T02:13:31.847Z,2.00
2023-02-21T02:16:15.787Z,2.28
2023-02-21T02:19:14.809Z,1.73
2023-02-21T02:21:47.315Z,2.42
2023-02-21T02:24:29.073Z,2.03
2023-02-21T02:27:19.769Z,2.15
2023-02-21T02:29:55.557Z,2.45
2023-02-21T02:32:29.337Z,1.90
2023-02-21T02:35:11.305Z,2.17
2023-02-21T02:38:09.070Z,2.40
2023-02-21T02:41:13.045Z,2.65
2023-02-21T02:43:59.679Z,1.95
2023-02-21T02:46:34.233Z,2.63
2023-02-21T02:49:06.068Z,2.00
2023-02-21T02:51:35.049Z,2.20
2023-02-21T02:54:04.596Z,2.22
2023-02-21T02:56:33.676Z,2.83
2023-02-21T02:59:12.313Z,2.90
2023-02-21T03:02:13.489Z,2.22
2023-02-21T03:05:13.402Z,1.83
2023-02-21T03:07:51.410Z,1.50
2023-02-21T03:10:46.204Z,2.05
2023-02-21T03:14:09.425Z,1.80
2023-02-21T03:16:51.566Z,1.60
2023-02-21T03:19:29.426Z,1.88
2023-02-21T03:22:03.800Z,1.73
2023-02-21T03:24:32.240Z,2.35
2023-02-21T03:27:05.611Z,2.75
2023-02-21T03:29:56.216Z,2.75
2023-02-21T03:32:34.657Z,1.98
2023-02-21T03:35:03.130Z,1.58
2023-02-21T03:37:37.369Z,1.70
2023-02-21T03:40:08.542Z,2.60
2023-02-21T03:42:35.364Z,1.73
2023-02-21T03:45:02.510Z,1.42
2023-02-21T03:47:29.231Z,2.05
2023-02-21T03:49:56.473Z,1.63
2023-02-21T03:52:23.321Z,2.22
2023-02-21T03:54:50.529Z,1.83
2023-02-21T03:57:22.355Z,1.67
2023-02-21T03:59:50.012Z,1.75
2023-02-21T04:02:16.998Z,1.90
2023-02-21T04:04:44.594Z,1.63
2023-02-21T04:07:16.279Z,2.08
2023-02-21T04:09:44.540Z,2.00
2023-02-21T04:12:15.865Z,1.95
2023-02-21T04:14:42.678Z,3.20
2023-02-21T04:17:09.453Z,3.10
2023-02-21T04:19:36.386Z,1.75
2023-02-21T04:22:06.278Z,1.60
2023-02-21T04:24:33.164Z,2.05
2023-02-21T04:27:02.182Z,2.13
2023-02-21T04:29:31.735Z,2.33
2023-02-21T04:31:58.722Z,1.67
2023-02-21T04:34:25.526Z,2.28
2023-02-21T04:36:52.550Z,2.03
2023-02-21T04:39:19.519Z,1.75
2023-02-21T04:41:47.879Z,2.40
2023-02-21T04:44:14.610Z,1.85
2023-02-21T04:46:41.378Z,2.55
2023-02-21T04:49:08.531Z,2.58
2023-02-21T04:51:35.220Z,2.47
2023-02-21T04:54:01.928Z,1.88
2023-02-21T04:56:29.227Z,3.35
2023-02-21T04:58:56.554Z,3.00
2023-02-21T05:01:27.380Z,1.90
2023-02-21T05:03:54.213Z,1.88
2023-02-21T05:06:23.609Z,2.05
2023-02-21T05:08:50.448Z,1.85
2023-02-21T05:11:18.582Z,2.00
2023-02-21T05:13:45.315Z,2.30
2023-02-21T05:16:12.746Z,2.75
2023-02-21T05:18:42.349Z,1.63
2023-02-21T05:21:09.493Z,2.13
2023-02-21T05:23:36.928Z,1.60
2023-02-21T05:26:05.788Z,2.03
2023-02-21T05:28:32.547Z,1.52
2023-02-21T05:31:01.056Z,2.15
2023-02-21T05:33:28.055Z,1.33
2023-02-21T05:35:55.617Z,1.90
2023-02-21T05:38:24.690Z,2.60
2023-02-21T05:40:51.887Z,1.48
2023-02-21T05:43:19.029Z,2.33
2023-02-21T05:45:45.758Z,1.50
2023-02-21T05:48:12.536Z,1.48
2023-02-21T05:50:39.704Z,1.95
2023-02-21T05:53:06.841Z,2.00
2023-02-21T05:55:33.696Z,1.80
2023-02-21T05:58:00.415Z,2.08
2023-02-21T06:00:29.516Z,1.88
2023-02-21T06:02:57.175Z,1.30
2023-02-21T06:05:24.290Z,1.25
2023-02-21T06:07:51.390Z,1.63
2023-02-21T06:10:19.244Z,1.63
2023-02-21T06:12:46.380Z,2.20
2023-02-21T06:15:13.398Z,2.35
2023-02-21T06:17:41.474Z,1.88
2023-02-21T06:20:10.938Z,1.67
2023-02-21T06:22:37.705Z,1.65
2023-02-21T06:25:04.935Z,2.22
2023-02-21T06:27:31.609Z,2.58
2023-02-21T06:29:58.492Z,1.80
2023-02-21T06:32:25.241Z,1.75
2023-02-21T06:34:51.958Z,2.05
2023-02-21T06:37:19.580Z,1.63
2023-02-21T06:39:46.317Z,1.92
2023-02-21T06:42:18.021Z,2.30
2023-02-21T06:44:49.123Z,1.85
2023-02-21T06:47:16.312Z,2.05
2023-02-21T06:49:43.436Z,2.83
2023-02-21T06:52:11.251Z,2.22
2023-02-21T06:54:38.378Z,1.90
2023-02-21T06:57:05.739Z,2.88
2023-02-21T06:59:32.562Z,2.70
2023-02-21T07:01:59.523Z,2.95
2023-02-21T07:04:26.549Z,1.90
2023-02-21T07:06:53.353Z,2.22
2023-02-21T07:09:20.129Z,2.33
2023-02-21T07:11:47.099Z,1.95
2023-02-21T07:14:14.545Z,1.95
2023-02-21T07:16:41.366Z,1.83
2023-02-21T07:19:08.153Z,3.17
2023-02-21T07:21:35.020Z,2.13
2023-02-21T07:24:01.904Z,1.73
2023-02-21T07:26:28.649Z,1.92
2023-02-21T07:28:55.448Z,2.60
2023-02-21T07:31:22.609Z,1.65
2023-02-21T07:33:49.547Z,2.58
2023-02-21T07:36:16.715Z,2.00
2023-02-21T07:38:43.689Z,3.15
2023-02-21T07:41:10.357Z,2.25
2023-02-21T07:43:39.055Z,2.20
2023-02-21T07:46:10.827Z,3.17
2023-02-21T07:48:37.622Z,1.95
2023-02-21T07:51:06.388Z,2.05
2023-02-21T07:53:33.190Z,2.45
2023-02-21T07:55:59.994Z,2.67
2023-02-21T07:58:26.827Z,1.70
2023-02-21T08:00:55.524Z,4.28
2023-02-21T08:03:23.399Z,1.80
2023-02-21T08:05:50.099Z,2.78
2023-02-21T08:08:17.198Z,2.05
2023-02-21T08:10:44.088Z,2.42
2023-02-21T08:13:10.860Z,2.78
2023-02-21T08:15:37.628Z,3.08
2023-02-21T08:18:05.284Z,2.05
2023-02-21T08:20:32.319Z,3.08
2023-02-21T08:22:59.453Z,3.65
2023-02-21T08:25:26.130Z,2.65
2023-02-21T08:27:55.214Z,3.33
2023-02-21T08:30:23.028Z,2.95
2023-02-21T08:32:51.255Z,2.92
2023-02-21T08:35:19.771Z,2.40
2023-02-21T08:37:50.878Z,2.30
2023-02-21T08:40:20.657Z,1.85
2023-02-21T08:42:52.506Z,2.80
2023-02-21T08:45:22.103Z,2.58
2023-02-21T08:47:49.500Z,2.35
2023-02-21T08:50:17.055Z,2.63
2023-02-21T08:52:46.225Z,2.38
2023-02-21T08:55:13.169Z,3.42
2023-02-21T08:57:39.914Z,1.73
2023-02-21T09:00:11.269Z,2.38
2023-02-21T09:02:41.837Z,2.92
2023-02-21T09:05:18.972Z,2.13
2023-02-21T09:07:48.583Z,3.00
2023-02-21T09:10:15.371Z,2.90
2023-02-21T09:12:42.124Z,2.88
2023-02-21T09:15:09.806Z,2.47
2023-02-21T09:17:36.757Z,2.35
2023-02-21T09:20:09.224Z,2.67
2023-02-21T09:22:38.621Z,3.00
2023-02-21T09:25:07.427Z,2.53
2023-02-21T09:27:36.923Z,2.80
2023-02-21T09:30:20.449Z,1.65
2023-02-21T09:32:48.046Z,2.17
2023-02-21T09:35:15.596Z,2.15
2023-02-21T09:37:44.197Z,2.78
2023-02-21T09:40:23.097Z,1.58
2023-02-21T09:42:52.554Z,1.40
2023-02-21T09:45:22.381Z,2.42
2023-02-21T09:47:57.827Z,1.70
2023-02-21T09:50:31.067Z,2.10
2023-02-21T09:52:59.017Z,1.42
2023-02-21T09:55:38.790Z,1.65
2023-02-21T09:58:13.923Z,1.52
2023-02-21T10:00:44.018Z,1.35
2023-02-21T10:03:47.108Z,2.20
2023-02-21T10:06:24.710Z,1.90
2023-02-21T10:09:03.343Z,1.92
2023-02-21T10:11:55.892Z,1.67
2023-02-21T10:14:38.427Z,2.67
2023-02-21T10:17:07.167Z,2.72
2023-02-21T10:19:42.184Z,1.65
2023-02-21T10:22:23.332Z,1.48
2023-02-21T10:24:51.680Z,2.25
2023-02-21T10:27:24.662Z,2.85
2023-02-21T10:30:26.160Z,1.98
2023-02-21T10:32:53.860Z,2.03
2023-02-21T10:35:20.631Z,3.45
2023-02-21T10:37:51.663Z,3.42
2023-02-21T10:40:37.169Z,1.70
2023-02-21T10:43:28.802Z,2.00
2023-02-21T10:46:34.319Z,2.75
2023-02-21T10:49:24.631Z,1.50
2023-02-21T10:52:23.651Z,2.35
2023-02-21T10:55:09.721Z,1.30
2023-02-21T10:57:43.830Z,2.38
2023-02-21T11:00:37.410Z,1.75
2023-02-21T11:03:31.420Z,1.02
2023-02-21T11:05:58.571Z,1.90
2023-02-21T11:08:40.670Z,1.10
2023-02-21T11:11:07.561Z,1.98
2023-02-21T11:13:36.120Z,1.50
2023-02-21T11:16:20.261Z,1.42
2023-02-21T11:18:46.947Z,1.58
2023-02-21T11:21:16.364Z,1.50
2023-02-21T11:23:53.051Z,1.27
2023-02-21T11:26:19.803Z,1.33
2023-02-21T11:28:47.984Z,1.65
2023-02-21T11:31:33.252Z,2.78
2023-02-21T11:34:01.363Z,2.97
2023-02-21T11:36:36.921Z,2.03
2023-02-21T11:39:31.534Z,1.05
2023-02-21T11:42:03.201Z,2.25
2023-02-21T11:44:35.074Z,2.63
2023-02-21T11:47:25.220Z,2.05
2023-02-21T11:50:32.932Z,1.50
2023-02-21T11:53:18.788Z,1.05
2023-02-21T11:56:12.973Z,1.30
2023-02-21T11:59:09.812Z,1.25
2023-02-21T12:01:50.166Z,2.22
2023-02-21T12:04:37.916Z,1.95
2023-02-21T12:07:29.408Z,1.10
2023-02-21T12:10:08.905Z,1.10
2023-02-21T12:12:51.615Z,1.20
2023-02-21T12:15:24.936Z,2.00
2023-02-21T12:18:24.179Z,1.05
2023-02-21T12:21:09.782Z,1.02
2023-02-21T12:23:36.511Z,1.40
2023-02-21T12:26:08.872Z,0.70
2023-02-21T12:28:56.884Z,0.93
2023-02-21T12:31:45.572Z,1.20
2023-02-21T12:34:34.133Z,0.98
2023-02-21T12:37:17.709Z,1.92
2023-02-21T12:40:03.894Z,1.08
2023-02-21T12:42:52.522Z,2.33
2023-02-21T12:45:46.987Z,1.10
2023-02-21T12:48:32.594Z,1.48
2023-02-21T12:51:06.457Z,1.58
2023-02-21T12:53:49.920Z,1.23
2023-02-21T12:56:23.897Z,1.23
2023-02-21T12:59:03.184Z,1.48
2023-02-21T13:01:44.053Z,0.90
2023-02-21T13:04:27.853Z,0.68
2023-02-21T13:07:19.032Z,1.77
2023-02-21T13:09:52.962Z,2.13
2023-02-21T13:12:23.391Z,1.25
2023-02-21T13:15:00.895Z,0.75
2023-02-21T13:17:27.892Z,0.68
2023-02-21T13:20:06.320Z,1.15
2023-02-21T13:23:10.260Z,1.30
2023-02-21T13:26:06.060Z,1.13
2023-02-21T13:28:36.441Z,2.13
2023-02-21T13:31:06.015Z,0.90
2023-02-21T13:33:45.222Z,0.75
2023-02-21T13:36:28.494Z,1.27
2023-02-21T13:39:09.159Z,1.27
2023-02-21T13:41:39.433Z,1.25
2023-02-21T13:44:10.655Z,1.05
2023-02-21T13:46:37.331Z,1.42
2023-02-21T13:49:37.807Z,0.93
2023-02-21T13:52:51.525Z,1.08
2023-02-21T13:55:18.665Z,0.98
2023-02-21T13:57:49.311Z,2.75
2023-02-21T14:00:24.598Z,2.42
2023-02-21T14:03:18.178Z,1.30
2023-02-21T14:05:47.646Z,1.30
2023-02-21T14:08:30.645Z,1.73
2023-02-21T14:11:06.214Z,1.70
2023-02-21T14:13:42.065Z,0.70
2023-02-21T14:16:09.260Z,0.88
2023-02-21T14:18:39.043Z,0.77
2023-02-21T14:21:26.136Z,1.08
2023-02-21T14:24:11.732Z,0.80
2023-02-21T14:26:52.087Z,1.35
2023-02-21T14:30:12.659Z,1.33
2023-02-21T14:32:46.355Z,0.80
2023-02-21T14:35:31.951Z,1.38
2023-02-21T14:38:08.700Z,2.20
2023-02-21T14:40:49.124Z,0.95
2023-02-21T14:43:28.278Z,1.10
2023-02-21T14:46:09.925Z,1.63
2023-02-21T14:48:48.928Z,1.02
2023-02-21T14:51:30.621Z,1.60
2023-02-21T14:54:43.191Z,0.80
2023-02-21T14:57:55.252Z,0.80
2023-02-21T15:00:47.982Z,0.90
2023-02-21T15:03:34.001Z,0.70
2023-02-21T15:06:03.128Z,0.80
2023-02-21T15:08:50.932Z,0.80
2023-02-21T15:11:34.614Z,1.30
2023-02-21T15:14:24.698Z,1.33
2023-02-21T15:16:53.419Z,1.15
2023-02-21T15:19:25.611Z,0.90
2023-02-21T15:22:13.273Z,1.25
2023-02-21T15:24:40.002Z,1.33
2023-02-21T15:27:12.073Z,1.15
2023-02-21T15:29:42.322Z,1.20
2023-02-21T15:32:12.488Z,1.02
2023-02-21T15:34:43.215Z,0.60
2023-02-21T15:37:25.768Z,1.63
2023-02-21T15:39:59.926Z,1.40
2023-02-21T15:42:28.031Z,1.20
2023-02-21T15:45:01.924Z,1.13
2023-02-21T15:47:32.982Z,0.77
2023-02-21T15:50:02.441Z,0.57
2023-02-21T15:52:36.879Z,0.80
2023-02-21T15:55:19.872Z,0.70
2023-02-21T15:58:12.549Z,0.70
2023-02-21T16:01:09.708Z,1.88
2023-02-21T16:06:21.085Z,0.80
2023-02-21T16:09:14.922Z,1.13
2023-02-21T16:11:55.581Z,1.15
2023-02-21T16:14:36.716Z,0.68
2023-02-21T16:17:08.612Z,1.10
2023-02-21T16:19:36.669Z,0.95
2023-02-21T16:22:21.571Z,1.23
2023-02-21T16:24:48.274Z,1.48
2023-02-21T16:27:17.191Z,1.40
2023-02-21T16:29:44.079Z,1.58
2023-02-21T16:32:28.760Z,0.77
2023-02-21T16:34:55.518Z,0.90
2023-02-21T16:37:23.182Z,1.50
2023-02-21T16:39:49.947Z,1.08
2023-02-21T16:42:16.781Z,1.55
2023-02-21T16:44:43.877Z,0.90
2023-02-21T16:47:15.141Z,1.45
2023-02-21T16:49:42.640Z,1.25
2023-02-21T16:52:14.906Z,1.90
2023-02-21T16:54:41.953Z,0.95
2023-02-21T16:57:09.990Z,1.25
2023-02-21T16:59:37.316Z,1.48
2023-02-21T17:02:04.994Z,1.35
2023-02-21T17:04:31.698Z,1.48
2023-02-21T17:07:02.065Z,1.50
2023-02-21T17:09:29.941Z,0.90
2023-02-21T17:11:56.688Z,1.55
2023-02-21T17:14:23.369Z,1.15
2023-02-21T17:16:50.114Z,2.10
2023-02-21T17:19:19.668Z,2.00
2023-02-21T17:21:47.013Z,2.00
2023-02-21T17:24:14.725Z,2.33
2023-02-21T17:26:42.029Z,2.55
2023-02-21T17:29:09.258Z,2.33
2023-02-21T17:31:36.042Z,2.53
2023-02-21T17:34:03.666Z,1.85
2023-02-21T17:36:31.002Z,2.60
2023-02-21T17:38:59.037Z,2.22
2023-02-21T17:41:27.480Z,1.90
2023-02-21T17:43:54.432Z,1.90
2023-02-21T17:46:21.313Z,2.88
2023-02-21T17:48:48.080Z,1.67
2023-02-21T17:51:21.622Z,2.58
2023-02-21T17:53:48.974Z,2.33
2023-02-21T17:56:22.107Z,3.50
2023-02-21T17:58:48.915Z,2.30
2023-02-21T18:01:18.610Z,3.58
2023-02-21T18:03:47.617Z,2.28
2023-02-21T18:06:15.499Z,1.58
2023-02-21T18:08:44.859Z,2.90
2023-02-21T18:11:13.468Z,2.72
2023-02-21T18:13:40.791Z,2.50
2023-02-21T18:16:08.112Z,3.35
2023-02-21T18:18:35.814Z,3.53
2023-02-21T18:21:02.538Z,2.92
2023-02-21T18:23:30.643Z,3.85
2023-02-21T18:25:57.852Z,2.70
2023-02-21T18:28:24.995Z,3.00
2023-02-21T18:30:53.833Z,2.63
2023-02-21T18:33:23.207Z,3.53
2023-02-21T18:35:50.253Z,3.72
2023-02-21T18:38:16.961Z,2.80
2023-02-21T18:40:47.237Z,2.83
2023-02-21T18:43:20.281Z,2.67
2023-02-21T18:45:49.230Z,3.00
2023-02-21T18:48:16.459Z,3.65
2023-02-21T18:50:43.936Z,3.25
2023-02-21T18:53:11.005Z,2.97
2023-02-21T18:55:38.595Z,4.65
2023-02-21T18:58:06.753Z,3.83
2023-02-21T19:00:36.192Z,3.53
2023-02-21T19:03:06.408Z,3.92
2023-02-21T19:05:33.892Z,3.63
2023-02-21T19:08:01.595Z,4.07
2023-02-21T19:10:29.678Z,4.88
2023-02-21T19:12:59.284Z,3.60
2023-02-21T19:15:26.621Z,4.38
2023-02-21T19:17:53.304Z,5.15
2023-02-21T19:20:20.423Z,3.90
2023-02-21T19:22:47.668Z,4.53
2023-02-21T19:25:16.815Z,3.72
2023-02-21T19:27:44.824Z,4.88
2023-02-21T19:30:13.459Z,4.70
2023-02-21T19:32:40.312Z,3.45
2023-02-21T19:35:08.307Z,3.67
2023-02-21T19:37:36.056Z,3.83
2023-02-21T19:40:07.426Z,4.32
2023-02-21T19:42:35.301Z,4.00
2023-02-21T19:45:05.089Z,3.83
2023-02-21T19:47:34.336Z,4.18
2023-02-21T19:50:01.101Z,4.75
2023-02-21T19:52:28.836Z,4.03
2023-02-21T19:54:55.600Z,4.10
2023-02-21T19:57:22.261Z,4.15
2023-02-21T19:59:49.020Z,4.15
2023-02-21T20:02:16.060Z,3.85
2023-02-21T20:04:43.530Z,5.65
2023-02-21T20:07:11.578Z,5.13
2023-02-21T20:09:39.309Z,5.30
2023-02-21T20:12:06.997Z,4.55
2023-02-21T20:14:33.725Z,4.85
2023-02-21T20:17:00.411Z,6.15
2023-02-21T20:19:27.743Z,6.35
2023-02-21T20:21:54.471Z,4.30
2023-02-21T20:24:21.316Z,5.35
2023-02-21T20:26:52.794Z,5.15
2023-02-21T20:29:21.397Z,5.20
2023-02-21T20:31:48.348Z,4.60
2023-02-21T20:34:15.148Z,6.28
2023-02-21T20:36:45.017Z,5.07
2023-02-21T20:39:22.564Z,6.55
2023-02-21T20:41:49.303Z,5.70
2023-02-21T20:44:16.129Z,5.68
2023-02-21T20:46:42.856Z,5.40
2023-02-21T20:49:14.059Z,5.88
2023-02-21T20:51:42.960Z,5.93
2023-02-21T20:54:12.719Z,6.13
2023-02-21T20:56:41.116Z,5.97
2023-02-21T20:59:15.704Z,5.60
2023-02-21T21:01:50.062Z,5.63
2023-02-21T21:04:26.440Z,6.55
2023-02-21T21:06:56.884Z,6.43
2023-02-21T21:09:33.906Z,5.57
2023-02-21T21:12:07.259Z,6.45
2023-02-21T21:14:37.346Z,5.07
2023-02-21T21:17:04.357Z,6.75
2023-02-21T21:19:33.928Z,5.32
2023-02-21T21:22:02.381Z,7.38
2023-02-21T21:24:29.209Z,5.50
2023-02-21T21:26:58.632Z,7.03
2023-02-21T21:29:25.948Z,5.45
2023-02-21T21:31:54.522Z,4.88
2023-02-21T21:34:23.262Z,5.30
2023-02-21T21:36:51.960Z,6.10
2023-02-21T21:39:23.108Z,5.07
2023-02-21T21:41:52.564Z,5.38
2023-02-21T21:44:23.168Z,6.63
2023-02-21T21:46:51.310Z,5.70
2023-02-21T21:49:20.778Z,6.13
2023-02-21T21:51:49.130Z,5.68
2023-02-21T21:54:20.671Z,5.20
2023-02-21T21:56:48.266Z,5.10
2023-02-21T21:59:20.731Z,5.35
2023-02-21T22:01:47.710Z,6.07
2023-02-21T22:04:14.495Z,5.47
2023-02-21T22:06:42.617Z,6.47
2023-02-21T22:09:15.166Z,6.03
2023-02-21T22:11:44.200Z,6.30
2023-02-21T22:14:11.884Z,6.85
2023-02-21T22:16:40.480Z,6.57
2023-02-21T22:19:07.816Z,6.32
2023-02-21T22:21:35.060Z,7.28
2023-02-21T22:24:03.046Z,5.93
2023-02-21T22:26:31.067Z,5.22
2023-02-21T22:28:58.734Z,6.53
2023-02-21T22:31:27.192Z,5.80
2023-02-21T22:33:59.091Z,6.15
2023-02-21T22:36:26.394Z,5.90
2023-02-21T22:38:55.770Z,5.93
2023-02-21T22:41:31.669Z,5.22
2023-02-21T22:43:58.655Z,5.53
2023-02-21T22:46:27.263Z,5.38
2023-02-21T22:48:55.393Z,6.75
2023-02-21T22:51:27.410Z,5.10
2023-02-21T22:53:54.412Z,6.07
2023-02-21T22:56:24.743Z,4.93
2023-02-21T22:58:54.991Z,5.15
2023-02-21T23:01:26.386Z,5.00
2023-02-21T23:04:10.725Z,5.03
2023-02-21T23:06:38.190Z,5.43
2023-02-21T23:09:12.129Z,5.60
2023-02-21T23:11:46.052Z,5.30
2023-02-21T23:14:15.732Z,4.85
2023-02-21T23:16:43.230Z,5.45
2023-02-21T23:19:10.615Z,4.55
2023-02-21T23:21:48.191Z,5.35
2023-02-21T23:24:16.125Z,6.80
2023-02-21T23:26:46.115Z,4.53
2023-02-21T23:29:24.007Z,4.93
2023-02-21T23:31:51.074Z,5.35
2023-02-21T23:34:19.660Z,5.45
2023-02-21T23:36:46.334Z,4.75
2023-02-21T23:39:15.030Z,5.07
2023-02-21T23:41:44.200Z,5.15
2023-02-21T23:44:12.847Z,5.03
2023-02-21T23:46:42.339Z,5.88
2023-02-21T23:49:11.835Z,6.53
2023-02-21T23:51:39.132Z,4.93
2023-02-21T23:54:07.195Z,5.47
2023-02-21T23:56:35.539Z,4.50
2023-02-21T23:59:06.014Z,5.18
